Time;durP1;ratioP1;P1;durP2;ratioP2;P2;SDS_P1;SDS_P2;PMS_P1;PMS_P2;Temp;Humidity;BMP_temperature;BMP_pressure;BME280_temperature;BME280_humidity;BME280_pressure;Samples;Min_cycle;Max_cycle;Signal;HPM_P1;HPM_P2
2023/04/29 00:00:06;;;;;;;;;;;11.00;99.90;;;;;;5036061;28;19935;-78
2023/04/29 00:02:32;;;;;;;;;;;10.90;99.90;;;;;;5051142;28;19928;-78
2023/04/29 00:04:57;;;;;;;;;;;10.90;99.90;;;;;;5059743;28;19966;-78
2023/04/29 00:07:23;;;;;;;;;;;10.90;99.90;;;;;;5051191;28;19936;-78
2023/04/29 00:09:48;;;;;;;;;;;10.90;99.90;;;;;;5053604;28;19936;-78
2023/04/29 00:12:14;;;;;;;;;;;10.80;99.90;;;;;;5052460;28;19939;-78
2023/04/29 00:14:42;;;;;;;;;;;10.90;99.90;;;;;;5052922;28;19928;-78
2023/04/29 00:17:07;;;;;;;;;;;10.90;99.90;;;;;;5052540;28;19932;-78
2023/04/29 00:19:33;;;;;;;;;;;10.80;99.90;;;;;;5052920;28;19970;-78
2023/04/29 00:21:58;;;;;;;;;;;10.90;99.90;;;;;;5052713;28;19936;-78
2023/04/29 00:24:24;;;;;;;;;;;10.90;99.90;;;;;;5036547;28;20667;-78
2023/04/29 00:26:50;;;;;;;;;;;10.80;99.90;;;;;;5048902;28;19928;-78
2023/04/29 00:29:16;;;;;;;;;;;10.80;99.90;;;;;;5052448;28;19934;-78
2023/04/29 00:31:41;;;;;;;;;;;10.80;99.90;;;;;;5056269;28;20406;-78
2023/04/29 00:34:07;;;;;;;;;;;10.70;99.90;;;;;;5054065;28;19935;-78
2023/04/29 00:36:33;;;;;;;;;;;10.80;99.90;;;;;;5048212;28;19928;-78
2023/04/29 00:38:58;;;;;;;;;;;10.70;99.90;;;;;;5057744;28;19928;-77
2023/04/29 00:41:24;;;;;;;;;;;10.70;99.90;;;;;;5055988;28;19928;-78
2023/04/29 00:43:51;;;;;;;;;;;10.80;99.90;;;;;;5051546;28;19928;-78
2023/04/29 00:46:17;;;;;;;;;;;10.70;99.90;;;;;;5029079;28;20065;-77
2023/04/29 00:48:42;;;;;;;;;;;10.70;99.90;;;;;;5055311;28;20158;-78
2023/04/29 00:51:08;;;;;;;;;;;10.70;99.90;;;;;;5051929;28;19941;-78
2023/04/29 00:53:34;;;;;;;;;;;10.70;99.90;;;;;;5052184;28;19950;-78
2023/04/29 00:56:00;;;;;;;;;;;10.70;99.90;;;;;;5056805;28;19928;-78
2023/04/29 00:58:32;;;;;;;;;;;10.70;99.90;;;;;;5056277;28;19939;-78
2023/04/29 01:01:01;;;;;;;;;;;10.70;99.90;;;;;;5048337;28;19936;-78
2023/04/29 01:03:30;;;;;;;;;;;10.70;99.90;;;;;;5046577;28;20447;-78
2023/04/29 01:06:22;;;;;;;;;;;10.60;99.90;;;;;;5053563;28;19940;-78
2023/04/29 01:08:59;;;;;;;;;;;10.60;99.90;;;;;;5053673;28;20032;-78
2023/04/29 01:11:29;;;;;;;;;;;10.60;99.90;;;;;;5046890;28;19936;-78
2023/04/29 01:13:58;;;;;;;;;;;10.60;99.90;;;;;;5057987;28;21026;-78
2023/04/29 01:16:36;;;;;;;;;;;10.50;99.90;;;;;;5050022;28;19935;-78
2023/04/29 01:19:06;;;;;;;;;;;10.60;99.90;;;;;;5055576;28;19928;-78
2023/04/29 01:21:31;;;;;;;;;;;10.60;99.90;;;;;;5048361;28;19928;-78
2023/04/29 01:23:57;;;;;;;;;;;10.50;99.90;;;;;;5056314;28;19932;-78
2023/04/29 01:26:23;;;;;;;;;;;10.60;99.90;;;;;;5051794;28;19969;-78
2023/04/29 01:28:48;;;;;;;;;;;10.50;99.90;;;;;;5055243;28;19935;-78
2023/04/29 01:31:17;;;;;;;;;;;10.60;99.90;;;;;;5053102;28;19939;-78
2023/04/29 01:33:43;;;;;;;;;;;10.50;99.90;;;;;;5054031;28;19939;-78
2023/04/29 01:36:22;;;;;;;;;;;10.50;99.90;;;;;;5050078;28;19932;-78
2023/04/29 01:38:54;;;;;;;;;;;10.40;99.90;;;;;;5058706;28;19928;-78
2023/04/29 01:41:28;;;;;;;;;;;10.50;99.90;;;;;;5052982;28;20001;-78
2023/04/29 01:43:55;;;;;;;;;;;10.50;99.90;;;;;;5053156;28;19930;-78
2023/04/29 01:46:21;;;;;;;;;;;10.50;99.90;;;;;;5057223;28;19928;-78
2023/04/29 01:48:46;;;;;;;;;;;10.40;99.90;;;;;;5054670;28;19950;-78
2023/04/29 01:51:12;;;;;;;;;;;10.40;99.90;;;;;;5056300;28;20005;-78
2023/04/29 01:53:41;;;;;;;;;;;10.40;99.90;;;;;;5047533;28;19952;-78
2023/04/29 01:56:07;;;;;;;;;;;10.40;99.90;;;;;;5058717;28;20018;-78
2023/04/29 01:58:32;;;;;;;;;;;10.40;99.90;;;;;;5052908;28;20454;-77
2023/04/29 02:00:58;;;;;;;;;;;10.40;99.90;;;;;;5048611;28;19951;-78
2023/04/29 02:03:23;;;;;;;;;;;10.30;99.90;;;;;;5055281;28;19933;-78
2023/04/29 02:05:49;;;;;;;;;;;10.40;99.90;;;;;;5057975;28;19967;-77
2023/04/29 02:08:15;;;;;;;;;;;10.30;99.90;;;;;;5059480;28;19932;-78
2023/04/29 02:10:41;;;;;;;;;;;10.40;99.90;;;;;;5049711;28;20298;-78
2023/04/29 02:13:07;;;;;;;;;;;10.30;99.90;;;;;;5055372;28;19935;-78
2023/04/29 02:15:32;;;;;;;;;;;10.40;99.90;;;;;;5054122;28;19955;-78
2023/04/29 02:17:58;;;;;;;;;;;10.40;99.90;;;;;;5054557;28;19994;-78
2023/04/29 02:20:24;;;;;;;;;;;10.30;99.90;;;;;;5056011;28;19927;-78
2023/04/29 02:22:50;;;;;;;;;;;10.20;99.90;;;;;;5059074;28;21836;-78
2023/04/29 02:25:16;;;;;;;;;;;10.20;99.90;;;;;;5056258;28;19928;-78
2023/04/29 02:27:41;;;;;;;;;;;10.20;99.90;;;;;;5047855;28;20489;-78
2023/04/29 02:30:07;;;;;;;;;;;10.20;99.90;;;;;;5055944;28;20352;-78
2023/04/29 02:32:33;;;;;;;;;;;10.30;99.90;;;;;;5055077;28;20649;-78
2023/04/29 02:34:58;;;;;;;;;;;10.20;99.90;;;;;;5055123;28;19928;-78
2023/04/29 02:37:24;;;;;;;;;;;10.20;99.90;;;;;;5056800;28;19931;-78
2023/04/29 02:39:49;;;;;;;;;;;10.20;99.90;;;;;;5059142;28;20017;-78
2023/04/29 02:42:15;;;;;;;;;;;10.10;99.90;;;;;;5054102;28;19931;-78
2023/04/29 02:44:41;;;;;;;;;;;10.20;99.90;;;;;;5060168;28;19928;-78
2023/04/29 02:47:06;;;;;;;;;;;10.10;99.90;;;;;;5055172;28;19928;-78
2023/04/29 02:49:32;;;;;;;;;;;10.10;99.90;;;;;;5056760;28;19958;-78
2023/04/29 02:51:58;;;;;;;;;;;10.10;99.90;;;;;;5053196;28;20658;-78
2023/04/29 02:54:23;;;;;;;;;;;10.10;99.90;;;;;;5054388;28;20447;-78
2023/04/29 02:56:49;;;;;;;;;;;10.00;99.90;;;;;;5056001;28;19928;-77
2023/04/29 02:59:14;;;;;;;;;;;10.00;99.90;;;;;;5051686;28;19928;-78
2023/04/29 03:01:40;;;;;;;;;;;10.10;99.90;;;;;;5050335;28;20409;-78
2023/04/29 03:04:05;;;;;;;;;;;10.00;99.90;;;;;;5050885;28;19928;-79
2023/04/29 03:06:31;;;;;;;;;;;10.00;99.90;;;;;;5048508;28;20013;-78
2023/04/29 03:08:57;;;;;;;;;;;10.00;99.90;;;;;;5047663;28;19954;-78
2023/04/29 03:11:25;;;;;;;;;;;10.00;99.90;;;;;;5050568;28;19928;-78
2023/04/29 03:13:51;;;;;;;;;;;9.90;99.90;;;;;;5053621;28;19986;-78
2023/04/29 03:16:16;;;;;;;;;;;9.90;99.90;;;;;;5050929;28;19931;-78
2023/04/29 03:18:42;;;;;;;;;;;9.90;99.90;;;;;;5051529;28;19931;-78
2023/04/29 03:21:08;;;;;;;;;;;9.90;99.90;;;;;;5043868;28;19971;-78
2023/04/29 03:23:40;;;;;;;;;;;10.00;99.90;;;;;;5060961;28;20023;-78
2023/04/29 03:26:06;;;;;;;;;;;10.00;99.90;;;;;;5070874;28;19928;-77
2023/04/29 03:28:31;;;;;;;;;;;10.00;99.90;;;;;;5072162;28;19981;-78
2023/04/29 03:30:57;;;;;;;;;;;9.90;99.90;;;;;;5069869;28;19924;-78
2023/04/29 03:33:23;;;;;;;;;;;10.00;99.90;;;;;;5071651;28;20015;-77
2023/04/29 03:35:49;;;;;;;;;;;10.00;99.90;;;;;;5073478;28;19928;-78
2023/04/29 03:38:14;;;;;;;;;;;9.90;99.90;;;;;;5072023;28;20031;-78
2023/04/29 03:40:40;;;;;;;;;;;9.90;99.90;;;;;;5072438;28;20031;-77
2023/04/29 03:43:07;;;;;;;;;;;10.00;99.90;;;;;;5053510;28;19924;-78
2023/04/29 03:45:33;;;;;;;;;;;9.90;99.90;;;;;;5072829;28;19936;-78
2023/04/29 03:47:59;;;;;;;;;;;9.90;99.90;;;;;;5059118;28;19924;-78
2023/04/29 03:50:24;;;;;;;;;;;9.90;99.90;;;;;;5076501;28;20296;-78
2023/04/29 03:52:50;;;;;;;;;;;10.00;99.90;;;;;;5079218;28;19973;-78
2023/04/29 03:55:16;;;;;;;;;;;9.90;99.90;;;;;;5076957;28;19928;-78
2023/04/29 03:57:41;;;;;;;;;;;9.90;99.90;;;;;;5073864;28;20301;-78
2023/04/29 04:00:07;;;;;;;;;;;10.00;99.90;;;;;;5078283;28;20172;-78
2023/04/29 04:02:34;;;;;;;;;;;9.90;99.90;;;;;;5073019;28;19928;-78
2023/04/29 04:04:59;;;;;;;;;;;9.90;99.90;;;;;;5074550;28;20274;-78
2023/04/29 04:07:25;;;;;;;;;;;9.80;99.90;;;;;;5075683;28;19939;-78
2023/04/29 04:09:50;;;;;;;;;;;9.80;99.90;;;;;;5077207;28;19928;-78
2023/04/29 04:12:16;;;;;;;;;;;9.80;99.90;;;;;;5075325;28;20029;-76
2023/04/29 04:14:42;;;;;;;;;;;9.70;99.90;;;;;;5076256;28;19993;-77
2023/04/29 04:17:07;;;;;;;;;;;9.80;99.90;;;;;;5071792;28;19933;-79
2023/04/29 04:19:33;;;;;;;;;;;9.80;99.90;;;;;;5074916;28;19985;-78
2023/04/29 04:21:58;;;;;;;;;;;9.80;99.90;;;;;;5077451;28;19928;-78
2023/04/29 04:24:24;;;;;;;;;;;9.80;99.90;;;;;;5074092;28;20365;-78
2023/04/29 04:26:49;;;;;;;;;;;9.80;99.90;;;;;;5077760;28;19936;-78
2023/04/29 04:29:15;;;;;;;;;;;9.80;99.90;;;;;;5073536;28;20269;-78
2023/04/29 04:31:40;;;;;;;;;;;9.80;99.90;;;;;;5073233;28;20017;-78
2023/04/29 04:34:06;;;;;;;;;;;9.80;99.90;;;;;;5075910;28;21370;-78
2023/04/29 04:36:32;;;;;;;;;;;9.70;99.90;;;;;;5075055;28;19928;-77
2023/04/29 04:38:57;;;;;;;;;;;9.80;99.90;;;;;;5076306;28;19932;-79
2023/04/29 04:41:23;;;;;;;;;;;9.70;99.90;;;;;;5072702;28;19927;-78
2023/04/29 04:43:48;;;;;;;;;;;9.60;99.90;;;;;;5071199;28;19929;-78
2023/04/29 04:46:15;;;;;;;;;;;9.60;99.90;;;;;;5073213;28;19928;-78
2023/04/29 04:48:41;;;;;;;;;;;9.70;99.90;;;;;;5073567;28;19928;-77
2023/04/29 04:51:10;;;;;;;;;;;9.70;99.90;;;;;;5077219;28;19931;-78
2023/04/29 04:53:36;;;;;;;;;;;9.70;99.90;;;;;;5076516;28;20048;-78
2023/04/29 04:56:02;;;;;;;;;;;9.60;99.90;;;;;;5078310;28;20432;-77
2023/04/29 04:58:29;;;;;;;;;;;9.70;99.90;;;;;;5075576;28;19927;-78
2023/04/29 05:00:55;;;;;;;;;;;9.60;99.90;;;;;;5074509;28;20018;-79
2023/04/29 05:03:20;;;;;;;;;;;9.60;99.90;;;;;;5072978;28;20525;-78
2023/04/29 05:05:51;;;;;;;;;;;9.70;99.90;;;;;;5074390;28;19928;-77
2023/04/29 05:08:17;;;;;;;;;;;9.70;99.90;;;;;;5074520;28;19935;-77
2023/04/29 05:10:42;;;;;;;;;;;9.70;99.90;;;;;;5075140;28;19934;-78
2023/04/29 05:13:08;;;;;;;;;;;9.70;99.90;;;;;;5077162;28;19931;-78
2023/04/29 05:15:34;;;;;;;;;;;9.60;99.90;;;;;;5076361;28;19928;-78
2023/04/29 05:18:00;;;;;;;;;;;9.60;99.90;;;;;;5076625;28;19927;-78
2023/04/29 05:20:26;;;;;;;;;;;9.70;99.90;;;;;;5075756;28;19974;-77
2023/04/29 05:22:51;;;;;;;;;;;9.70;99.90;;;;;;5074503;28;20608;-77
2023/04/29 05:25:17;;;;;;;;;;;9.60;99.90;;;;;;5074668;28;20472;-77
2023/04/29 05:27:42;;;;;;;;;;;9.60;99.90;;;;;;5072013;28;19928;-78
2023/04/29 05:30:08;;;;;;;;;;;9.60;99.90;;;;;;5073288;28;20023;-78
2023/04/29 05:32:44;;;;;;;;;;;9.60;99.90;;;;;;5073324;28;19967;-77
2023/04/29 05:35:10;;;;;;;;;;;9.60;99.90;;;;;;5073983;28;19928;-77
2023/04/29 05:37:36;;;;;;;;;;;9.60;99.90;;;;;;5071169;28;20262;-77
2023/04/29 05:40:01;;;;;;;;;;;9.60;99.90;;;;;;5075743;28;19928;-78
2023/04/29 05:42:27;;;;;;;;;;;9.70;99.90;;;;;;5075844;28;19936;-77
2023/04/29 05:44:52;;;;;;;;;;;9.70;99.90;;;;;;5075489;28;19980;-77
2023/04/29 05:47:18;;;;;;;;;;;9.70;99.90;;;;;;5073231;28;19928;-78
2023/04/29 05:49:43;;;;;;;;;;;9.70;99.90;;;;;;5071869;28;20328;-78
2023/04/29 05:52:09;;;;;;;;;;;9.70;99.90;;;;;;5075573;28;20483;-77
2023/04/29 05:54:35;;;;;;;;;;;9.80;99.90;;;;;;5071110;28;19967;-77
2023/04/29 05:57:04;;;;;;;;;;;9.90;99.90;;;;;;5072228;28;20342;-78
2023/04/29 05:59:30;;;;;;;;;;;9.80;99.90;;;;;;5075775;28;20464;-78
2023/04/29 06:01:56;;;;;;;;;;;9.70;99.90;;;;;;5066428;28;20598;-78
2023/04/29 06:04:22;;;;;;;;;;;9.80;99.90;;;;;;5069452;28;19924;-78
2023/04/29 06:06:48;;;;;;;;;;;9.80;99.90;;;;;;5072212;28;19985;-77
2023/04/29 06:09:17;;;;;;;;;;;9.80;99.90;;;;;;5066113;28;20385;-77
2023/04/29 06:11:43;;;;;;;;;;;9.90;99.90;;;;;;5071270;28;19928;-78
2023/04/29 06:14:09;;;;;;;;;;;9.90;99.90;;;;;;5073633;28;20050;-77
2023/04/29 06:16:35;;;;;;;;;;;9.80;99.90;;;;;;5074392;28;19939;-78
2023/04/29 06:19:00;;;;;;;;;;;9.90;99.90;;;;;;5072522;28;19942;-77
2023/04/29 06:21:27;;;;;;;;;;;9.90;99.90;;;;;;5069930;28;19928;-78
2023/04/29 06:23:53;;;;;;;;;;;10.00;99.90;;;;;;5072134;28;19924;-77
2023/04/29 06:26:19;;;;;;;;;;;10.10;99.90;;;;;;5072703;28;19928;-77
2023/04/29 06:28:46;;;;;;;;;;;10.10;99.90;;;;;;5070835;28;19978;-77
2023/04/29 06:31:11;;;;;;;;;;;10.10;99.90;;;;;;5073108;28;20297;-78
2023/04/29 06:33:37;;;;;;;;;;;10.10;99.90;;;;;;5072882;28;19931;-78
2023/04/29 06:36:03;;;;;;;;;;;10.10;99.90;;;;;;5075783;28;19935;-78
2023/04/29 06:38:29;;;;;;;;;;;10.10;99.90;;;;;;5074552;28;19928;-78
2023/04/29 06:40:56;;;;;;;;;;;10.30;99.90;;;;;;5075707;28;19952;-78
2023/04/29 06:43:22;;;;;;;;;;;10.40;99.90;;;;;;5055334;28;19928;-77
2023/04/29 06:45:47;;;;;;;;;;;10.50;99.90;;;;;;5071712;28;19939;-77
2023/04/29 06:48:13;;;;;;;;;;;10.40;99.90;;;;;;5076636;28;20336;-78
2023/04/29 06:50:38;;;;;;;;;;;10.50;99.90;;;;;;5071431;28;20374;-77
2023/04/29 06:53:04;;;;;;;;;;;10.50;99.90;;;;;;5072796;28;20304;-78
2023/04/29 06:55:30;;;;;;;;;;;10.50;99.90;;;;;;5073546;28;19935;-78
2023/04/29 06:57:56;;;;;;;;;;;10.50;99.90;;;;;;5057797;28;20301;-78
2023/04/29 07:00:22;;;;;;;;;;;10.40;99.90;;;;;;5072523;28;21621;-78
2023/04/29 07:02:47;;;;;;;;;;;10.50;99.90;;;;;;5070951;28;19932;-77
2023/04/29 07:05:13;;;;;;;;;;;10.50;99.90;;;;;;5065650;28;19982;-78
2023/04/29 07:07:38;;;;;;;;;;;10.70;99.90;;;;;;5072147;28;19935;-77
2023/04/29 07:10:04;;;;;;;;;;;10.70;99.90;;;;;;5075667;28;19981;-77
2023/04/29 07:12:30;;;;;;;;;;;10.70;99.90;;;;;;5076295;28;19924;-78
2023/04/29 07:14:56;;;;;;;;;;;10.90;99.90;;;;;;5076298;28;20428;-78
2023/04/29 07:17:22;;;;;;;;;;;10.90;99.90;;;;;;5070004;28;19929;-77
2023/04/29 07:19:47;;;;;;;;;;;11.10;99.90;;;;;;5076569;28;20801;-78
2023/04/29 07:22:13;;;;;;;;;;;11.20;99.90;;;;;;5071210;28;19928;-77
2023/04/29 07:24:38;;;;;;;;;;;11.30;99.90;;;;;;5057176;28;19946;-76
2023/04/29 07:27:04;;;;;;;;;;;11.30;99.90;;;;;;5075165;28;19990;-79
2023/04/29 07:29:30;;;;;;;;;;;11.40;99.90;;;;;;5077284;28;19928;-77
2023/04/29 07:31:56;;;;;;;;;;;11.60;99.90;;;;;;5076218;28;19928;-78
2023/04/29 07:34:21;;;;;;;;;;;11.60;99.90;;;;;;5076531;28;19936;-77
2023/04/29 07:36:47;;;;;;;;;;;11.70;99.90;;;;;;5057389;28;20836;-77
2023/04/29 07:39:14;;;;;;;;;;;11.80;99.90;;;;;;5072418;28;20481;-78
2023/04/29 07:41:39;;;;;;;;;;;11.80;99.90;;;;;;5071790;28;20716;-77
2023/04/29 07:44:05;;;;;;;;;;;11.90;99.90;;;;;;5073413;28;19934;-78
2023/04/29 07:46:30;;;;;;;;;;;12.10;99.90;;;;;;5071004;28;19939;-78
2023/04/29 07:48:57;;;;;;;;;;;12.30;99.90;;;;;;5075874;28;20437;-77
2023/04/29 07:51:23;;;;;;;;;;;12.60;99.90;;;;;;5072956;28;19974;-78
2023/04/29 07:53:48;;;;;;;;;;;12.70;99.90;;;;;;5070498;28;20020;-77
2023/04/29 07:56:15;;;;;;;;;;;12.80;99.90;;;;;;5073710;28;19928;-78
2023/04/29 07:58:40;;;;;;;;;;;12.90;99.90;;;;;;5071474;28;20036;-78
2023/04/29 08:01:10;;;;;;;;;;;13.30;99.90;;;;;;5070623;28;20386;-78
2023/04/29 08:03:36;;;;;;;;;;;12.70;99.90;;;;;;5066829;28;20631;-77
2023/04/29 08:06:02;;;;;;;;;;;13.10;99.90;;;;;;5061397;28;20383;-78
2023/04/29 08:08:29;;;;;;;;;;;12.90;99.90;;;;;;5060321;28;20781;-78
2023/04/29 08:10:54;;;;;;;;;;;13.00;99.90;;;;;;5060966;28;19935;-78
2023/04/29 08:13:20;;;;;;;;;;;13.10;99.90;;;;;;5069533;28;19924;-78
2023/04/29 08:15:45;;;;;;;;;;;13.20;99.90;;;;;;5073409;28;20004;-78
2023/04/29 08:18:11;;;;;;;;;;;13.40;99.90;;;;;;5074541;28;20381;-78
2023/04/29 08:20:37;;;;;;;;;;;13.60;99.90;;;;;;5073412;28;19934;-78
2023/04/29 08:23:02;;;;;;;;;;;13.60;99.90;;;;;;5068902;28;19932;-78
2023/04/29 08:25:29;;;;;;;;;;;14.10;99.90;;;;;;5075732;28;19928;-77
2023/04/29 08:27:54;;;;;;;;;;;14.00;99.90;;;;;;5074800;28;19997;-78
2023/04/29 08:30:20;;;;;;;;;;;14.00;99.90;;;;;;5073643;28;20373;-78
2023/04/29 08:32:46;;;;;;;;;;;14.40;99.90;;;;;;5073966;28;20023;-78
2023/04/29 08:35:11;;;;;;;;;;;15.10;99.90;;;;;;5075505;28;19932;-77
2023/04/29 08:37:37;;;;;;;;;;;14.60;99.90;;;;;;5059163;28;19945;-78
2023/04/29 08:40:03;;;;;;;;;;;14.20;99.90;;;;;;5072529;28;19935;-78
2023/04/29 08:42:33;;;;;;;;;;;14.60;99.90;;;;;;5071431;28;20339;-77
2023/04/29 08:45:00;;;;;;;;;;;14.60;99.90;;;;;;5070873;28;19935;-77
2023/04/29 08:47:29;;;;;;;;;;;14.90;99.90;;;;;;5073783;28;20024;-78
2023/04/29 08:49:55;;;;;;;;;;;15.10;99.90;;;;;;5075062;28;19957;-78
2023/04/29 08:52:20;;;;;;;;;;;14.70;99.90;;;;;;5071947;28;19928;-79
2023/04/29 08:54:46;;;;;;;;;;;14.80;99.90;;;;;;5074127;28;20829;-78
2023/04/29 08:57:12;;;;;;;;;;;14.90;99.90;;;;;;5068344;28;20398;-78
2023/04/29 08:59:37;;;;;;;;;;;15.10;99.90;;;;;;5073227;28;19932;-78
2023/04/29 09:02:05;;;;;;;;;;;14.30;99.90;;;;;;5071108;28;19928;-78
2023/04/29 09:04:40;;;;;;;;;;;14.50;99.90;;;;;;5073645;28;20400;-79
2023/04/29 09:07:06;;;;;;;;;;;14.90;99.90;;;;;;5074479;28;19985;-78
2023/04/29 09:09:32;;;;;;;;;;;15.10;99.90;;;;;;5076156;28;19928;-79
2023/04/29 09:11:57;;;;;;;;;;;15.40;99.90;;;;;;5072753;28;20023;-79
2023/04/29 09:14:23;;;;;;;;;;;15.30;99.90;;;;;;5073912;28;19989;-79
2023/04/29 09:16:50;;;;;;;;;;;15.50;99.90;;;;;;5074692;28;20522;-78
2023/04/29 09:19:35;;;;;;;;;;;15.60;99.90;;;;;;5074571;28;19960;-79
2023/04/29 09:22:01;;;;;;;;;;;15.90;99.90;;;;;;5073987;28;20330;-79
2023/04/29 09:24:28;;;;;;;;;;;15.80;99.90;;;;;;5074875;28;20499;-77
2023/04/29 09:26:54;;;;;;;;;;;15.60;99.90;;;;;;5071834;28;20293;-77
2023/04/29 09:29:20;;;;;;;;;;;15.80;99.90;;;;;;5075657;28;19928;-78
2023/04/29 09:31:45;;;;;;;;;;;15.90;99.90;;;;;;5072618;28;19935;-77
2023/04/29 09:34:11;;;;;;;;;;;15.60;99.90;;;;;;5092476;28;19982;-77
2023/04/29 09:36:44;;;;;;;;;;;16.00;99.90;;;;;;5075335;28;20010;-77
2023/04/29 09:39:11;;;;;;;;;;;16.50;99.90;;;;;;5073666;28;20015;-77
2023/04/29 09:41:41;;;;;;;;;;;16.80;99.90;;;;;;5070852;28;20370;-77
2023/04/29 09:44:07;;;;;;;;;;;16.10;99.90;;;;;;5073286;28;19933;-78
2023/04/29 09:46:36;;;;;;;;;;;16.40;99.90;;;;;;5067277;28;19932;-79
2023/04/29 09:49:05;;;;;;;;;;;15.60;99.90;;;;;;5071314;28;20019;-78
2023/04/29 09:51:31;;;;;;;;;;;15.80;99.90;;;;;;5067079;28;19928;-78
2023/04/29 09:53:58;;;;;;;;;;;15.40;99.90;;;;;;5067809;28;19938;-80
2023/04/29 09:56:27;;;;;;;;;;;15.50;99.90;;;;;;5071705;28;20148;-77
2023/04/29 09:58:54;;;;;;;;;;;15.10;99.90;;;;;;5075405;28;19994;-78
2023/04/29 10:01:21;;;;;;;;;;;14.80;99.90;;;;;;5065524;28;20039;-77
2023/04/29 10:03:47;;;;;;;;;;;15.20;99.90;;;;;;5077007;28;19928;-77
2023/04/29 10:06:13;;;;;;;;;;;15.50;99.90;;;;;;5067541;28;19932;-78
2023/04/29 10:08:40;;;;;;;;;;;15.10;99.90;;;;;;5062327;28;19929;-78
2023/04/29 10:11:06;;;;;;;;;;;15.20;99.90;;;;;;5064543;28;20388;-78
2023/04/29 10:13:33;;;;;;;;;;;15.20;99.90;;;;;;5068655;28;19932;-78
2023/04/29 10:16:06;;;;;;;;;;;14.50;99.90;;;;;;5053787;28;19928;-78
2023/04/29 10:18:38;;;;;;;;;;;15.40;99.90;;;;;;5056955;28;20686;-78
2023/04/29 10:21:06;;;;;;;;;;;15.80;99.90;;;;;;5056113;28;20062;-78
2023/04/29 10:23:32;;;;;;;;;;;16.00;99.90;;;;;;5057037;28;19928;-78
2023/04/29 10:25:59;;;;;;;;;;;16.20;99.90;;;;;;5062294;28;20317;-77
2023/04/29 10:28:26;;;;;;;;;;;17.00;99.90;;;;;;5061396;28;21993;-78
2023/04/29 10:30:53;;;;;;;;;;;16.30;99.90;;;;;;5050778;28;19935;-78
2023/04/29 10:33:20;;;;;;;;;;;16.10;99.90;;;;;;5038872;28;19936;-78
2023/04/29 10:35:46;;;;;;;;;;;16.20;99.90;;;;;;5065877;28;19971;-77
2023/04/29 10:38:15;;;;;;;;;;;17.10;99.90;;;;;;5066283;28;19970;-78
2023/04/29 10:40:45;;;;;;;;;;;17.00;99.90;;;;;;5065575;28;19928;-78
2023/04/29 10:43:11;;;;;;;;;;;16.50;99.90;;;;;;5063449;28;19932;-78
2023/04/29 10:45:37;;;;;;;;;;;17.10;99.90;;;;;;5050944;28;19924;-78
2023/04/29 10:48:07;;;;;;;;;;;17.40;99.90;;;;;;5068795;28;19932;-78
2023/04/29 10:50:48;;;;;;;;;;;17.00;99.90;;;;;;5069055;28;20396;-79
2023/04/29 10:53:15;;;;;;;;;;;16.10;99.90;;;;;;5066004;28;19936;-78
2023/04/29 10:55:40;;;;;;;;;;;15.70;99.90;;;;;;5066472;28;19986;-78
2023/04/29 10:58:25;;;;;;;;;;;15.50;99.90;;;;;;5068907;28;20070;-78
2023/04/29 11:00:51;;;;;;;;;;;15.50;99.90;;;;;;5066769;28;19932;-78
2023/04/29 11:03:37;;;;;;;;;;;15.60;99.90;;;;;;5066008;28;20045;-77
2023/04/29 11:06:09;;;;;;;;;;;16.40;99.90;;;;;;5066416;28;19924;-77
2023/04/29 11:08:42;;;;;;;;;;;17.20;99.90;;;;;;5059878;28;19928;-78
2023/04/29 11:11:08;;;;;;;;;;;16.80;99.90;;;;;;5066690;28;20062;-78
2023/04/29 11:13:37;;;;;;;;;;;16.10;99.90;;;;;;5067379;28;20636;-79
2023/04/29 11:16:09;;;;;;;;;;;16.60;99.90;;;;;;5067958;28;19931;-78
2023/04/29 11:18:55;;;;;;;;;;;16.60;99.90;;;;;;5052128;28;19928;-77
2023/04/29 11:21:21;;;;;;;;;;;16.40;99.90;;;;;;5065103;28;20592;-77
2023/04/29 11:23:46;;;;;;;;;;;17.30;99.90;;;;;;5074104;28;19928;-77
2023/04/29 11:26:12;;;;;;;;;;;17.20;99.90;;;;;;5068645;28;19928;-78
2023/04/29 11:28:40;;;;;;;;;;;17.20;99.90;;;;;;5071031;28;19932;-78
2023/04/29 11:31:06;;;;;;;;;;;17.60;99.90;;;;;;5070074;28;21472;-77
2023/04/29 11:33:32;;;;;;;;;;;17.40;99.90;;;;;;5075830;28;20042;-78
2023/04/29 11:35:59;;;;;;;;;;;18.10;99.90;;;;;;5071988;28;19960;-78
2023/04/29 11:38:25;;;;;;;;;;;18.10;99.90;;;;;;5072847;28;19927;-78
2023/04/29 11:40:50;;;;;;;;;;;18.00;99.90;;;;;;5069938;28;19932;-78
2023/04/29 11:43:28;;;;;;;;;;;17.40;99.90;;;;;;5053348;28;19928;-77
2023/04/29 11:46:00;;;;;;;;;;;17.10;99.90;;;;;;5068620;28;20642;-77
2023/04/29 11:48:25;;;;;;;;;;;17.80;99.90;;;;;;5068360;28;20586;-77
2023/04/29 11:50:52;;;;;;;;;;;17.30;99.90;;;;;;5065824;28;19932;-77
2023/04/29 11:53:23;;;;;;;;;;;17.80;99.90;;;;;;5068189;28;19975;-78
2023/04/29 11:55:49;;;;;;;;;;;17.90;99.90;;;;;;5070799;28;20340;-78
2023/04/29 11:58:15;;;;;;;;;;;17.80;99.90;;;;;;5068088;28;19935;-78
2023/04/29 12:00:41;;;;;;;;;;;16.90;99.90;;;;;;5071042;28;19951;-77
2023/04/29 12:03:13;;;;;;;;;;;17.80;99.90;;;;;;5071516;28;20440;-78
2023/04/29 12:05:39;;;;;;;;;;;17.50;99.90;;;;;;5075904;28;19928;-78
2023/04/29 12:08:06;;;;;;;;;;;17.20;99.90;;;;;;5071404;28;19928;-78
2023/04/29 12:10:34;;;;;;;;;;;17.90;99.90;;;;;;5069340;28;19928;-78
2023/04/29 12:13:00;;;;;;;;;;;17.70;99.90;;;;;;5069380;28;19928;-79
2023/04/29 12:15:25;;;;;;;;;;;18.40;99.90;;;;;;5072879;28;20734;-78
2023/04/29 12:17:51;;;;;;;;;;;17.00;99.90;;;;;;5053573;28;19934;-78
2023/04/29 12:20:17;;;;;;;;;;;16.70;99.90;;;;;;5072720;28;19928;-79
2023/04/29 12:22:42;;;;;;;;;;;17.10;99.90;;;;;;5067525;28;19981;-78
2023/04/29 12:25:08;;;;;;;;;;;17.40;99.90;;;;;;5075731;28;19939;-77
2023/04/29 12:27:35;;;;;;;;;;;17.50;99.90;;;;;;5068129;28;19982;-79
2023/04/29 12:30:00;;;;;;;;;;;17.70;99.90;;;;;;5064717;28;20782;-79
2023/04/29 12:32:26;;;;;;;;;;;18.30;99.90;;;;;;5066320;28;19958;-78
2023/04/29 12:34:51;;;;;;;;;;;18.20;99.90;;;;;;5069901;28;19932;-78
2023/04/29 12:37:17;;;;;;;;;;;18.10;99.90;;;;;;5069088;28;19928;-77
2023/04/29 12:39:43;;;;;;;;;;;18.70;99.90;;;;;;5064654;28;20035;-78
2023/04/29 12:42:13;;;;;;;;;;;18.50;99.90;;;;;;5067594;28;20008;-78
2023/04/29 12:44:39;;;;;;;;;;;18.10;99.90;;;;;;5071245;28;19941;-78
2023/04/29 12:47:09;;;;;;;;;;;18.10;99.90;;;;;;5068470;28;20723;-77
2023/04/29 12:49:40;;;;;;;;;;;19.20;99.90;;;;;;5073354;28;19938;-78
2023/04/29 12:52:09;;;;;;;;;;;19.20;99.90;;;;;;5070766;28;19932;-78
2023/04/29 12:54:40;;;;;;;;;;;18.40;99.90;;;;;;5071228;28;19962;-78
2023/04/29 12:57:06;;;;;;;;;;;18.60;99.90;;;;;;5069453;28;19928;-78
2023/04/29 12:59:32;;;;;;;;;;;18.80;99.90;;;;;;5075039;28;19935;-78
2023/04/29 13:01:58;;;;;;;;;;;18.90;99.90;;;;;;5076084;28;20066;-78
2023/04/29 13:04:23;;;;;;;;;;;18.80;99.90;;;;;;5075196;28;19928;-79
2023/04/29 13:06:53;;;;;;;;;;;19.10;99.90;;;;;;5058052;28;19932;-79
2023/04/29 13:09:18;;;;;;;;;;;19.30;99.90;;;;;;5044901;28;20097;-78
2023/04/29 13:11:44;;;;;;;;;;;19.40;99.90;;;;;;5070501;28;19927;-79
2023/04/29 13:14:10;;;;;;;;;;;19.40;99.90;;;;;;5071420;28;19928;-78
2023/04/29 13:16:36;;;;;;;;;;;18.80;99.90;;;;;;5068726;28;19951;-78
2023/04/29 13:19:01;;;;;;;;;;;18.50;99.90;;;;;;5072796;28;20286;-78
2023/04/29 13:21:27;;;;;;;;;;;19.50;99.90;;;;;;5071891;28;20385;-78
2023/04/29 13:23:53;;;;;;;;;;;19.30;99.90;;;;;;5068480;28;19997;-79
2023/04/29 13:26:18;;;;;;;;;;;18.80;99.90;;;;;;5067107;28;19939;-77
2023/04/29 13:28:44;;;;;;;;;;;18.30;99.90;;;;;;5067420;28;20078;-78
2023/04/29 13:31:10;;;;;;;;;;;17.50;99.90;;;;;;5062385;28;20058;-79
2023/04/29 13:33:36;;;;;;;;;;;18.10;99.90;;;;;;5061864;28;19932;-79
2023/04/29 13:36:01;;;;;;;;;;;18.00;99.90;;;;;;5049797;28;20685;-78
2023/04/29 13:38:27;;;;;;;;;;;18.50;99.90;;;;;;5069499;28;19932;-79
2023/04/29 13:40:52;;;;;;;;;;;18.30;99.90;;;;;;5069553;28;19975;-79
2023/04/29 13:43:18;;;;;;;;;;;18.70;99.90;;;;;;5063775;28;19933;-78
2023/04/29 13:45:44;;;;;;;;;;;18.80;99.90;;;;;;5066658;28;20298;-78
2023/04/29 13:48:10;;;;;;;;;;;18.50;99.90;;;;;;5064199;28;19974;-78
2023/04/29 13:50:36;;;;;;;;;;;18.20;99.90;;;;;;5064655;28;20381;-78
2023/04/29 13:53:01;;;;;;;;;;;17.90;99.90;;;;;;5070305;28;20109;-77
2023/04/29 13:55:28;;;;;;;;;;;17.80;99.90;;;;;;5070379;28;20645;-77
2023/04/29 13:58:13;;;;;;;;;;;18.20;99.90;;;;;;5068822;28;19928;-78
2023/04/29 14:00:39;;;;;;;;;;;18.00;99.90;;;;;;5062416;28;20069;-77
2023/04/29 14:03:06;;;;;;;;;;;17.90;99.90;;;;;;5067388;28;20456;-78
2023/04/29 14:05:32;;;;;;;;;;;18.20;99.90;;;;;;5065434;28;20056;-78
2023/04/29 14:07:59;;;;;;;;;;;18.10;99.90;;;;;;5069447;28;20220;-78
2023/04/29 14:10:25;;;;;;;;;;;18.10;99.90;;;;;;5067526;28;19928;-77
2023/04/29 14:12:50;;;;;;;;;;;18.20;99.90;;;;;;5069310;28;19928;-77
2023/04/29 14:15:16;;;;;;;;;;;18.10;99.90;;;;;;5070652;28;19925;-78